createdAt,value
2022-11-27T00:01:11.836Z,6.33
2022-11-27T00:03:43.939Z,6.00
2022-11-27T00:06:15.745Z,6.83
2022-11-27T00:08:44.991Z,6.50
2022-11-27T00:11:17.453Z,6.50
2022-11-27T00:13:48.371Z,6.00
2022-11-27T00:16:16.861Z,5.70
2022-11-27T00:18:44.908Z,5.60
2022-11-27T00:21:17.417Z,5.63
2022-11-27T00:23:45.865Z,6.53
2022-11-27T00:26:18.059Z,5.80
2022-11-27T00:28:46.225Z,5.80
2022-11-27T00:31:18.816Z,5.97
2022-11-27T00:33:49.287Z,5.67
2022-11-27T00:36:20.031Z,4.67
2022-11-27T00:38:50.614Z,4.80
2022-11-27T00:41:25.975Z,4.77
2022-11-27T00:43:55.000Z,5.13
2022-11-27T00:46:28.376Z,4.83
2022-11-27T00:49:02.749Z,4.90
2022-11-27T00:51:31.401Z,4.97
2022-11-27T00:54:06.100Z,5.07
2022-11-27T00:56:38.049Z,5.27
2022-11-27T00:59:08.645Z,4.60
2022-11-27T01:01:39.719Z,4.43
2022-11-27T01:04:12.342Z,4.70
2022-11-27T01:06:41.021Z,5.50
2022-11-27T01:09:12.330Z,5.83
2022-11-27T01:11:44.623Z,5.27
2022-11-27T01:14:14.940Z,5.10
2022-11-27T01:16:46.698Z,5.30
2022-11-27T01:19:19.435Z,5.10
2022-11-27T01:21:48.041Z,5.20
2022-11-27T01:24:17.962Z,4.60
2022-11-27T01:26:47.804Z,4.30
2022-11-27T01:29:17.900Z,4.97
2022-11-27T01:31:46.200Z,5.87
2022-11-27T01:34:19.598Z,5.10
2022-11-27T01:36:50.127Z,4.60
2022-11-27T01:39:25.070Z,5.57
2022-11-27T01:41:54.590Z,4.63
2022-11-27T01:44:56.939Z,5.23
2022-11-27T01:47:36.546Z,4.43
2022-11-27T01:50:14.529Z,5.03
2022-11-27T01:52:48.928Z,5.63
2022-11-27T01:55:23.094Z,5.30
2022-11-27T01:57:57.856Z,5.67
2022-11-27T02:00:26.668Z,5.30
2022-11-27T02:02:54.811Z,5.20
2022-11-27T02:05:28.416Z,5.67
2022-11-27T02:07:59.183Z,5.40
2022-11-27T02:10:39.592Z,5.97
2022-11-27T02:13:17.291Z,5.07
2022-11-27T02:15:50.700Z,5.53
2022-11-27T02:18:28.203Z,5.70
2022-11-27T02:21:03.956Z,4.43
2022-11-27T02:24:23.202Z,6.40
2022-11-27T02:27:11.694Z,6.23
2022-11-27T02:29:47.378Z,6.00
2022-11-27T02:32:23.166Z,5.30
2022-11-27T02:34:56.984Z,5.77
2022-11-27T02:37:34.078Z,5.37
2022-11-27T02:40:06.492Z,5.43
2022-11-27T02:42:40.196Z,5.63
2022-11-27T02:45:13.602Z,5.10
2022-11-27T02:47:44.344Z,5.30
2022-11-27T02:50:17.829Z,4.93
2022-11-27T02:52:49.088Z,5.40
2022-11-27T02:55:21.455Z,5.23
2022-11-27T02:57:52.002Z,5.77
2022-11-27T03:00:22.355Z,5.70
2022-11-27T03:02:54.473Z,5.30
2022-11-27T03:05:25.517Z,5.27
2022-11-27T03:07:58.004Z,5.67
2022-11-27T03:10:31.195Z,5.23
2022-11-27T03:13:01.699Z,5.77
2022-11-27T03:15:44.337Z,5.70
2022-11-27T03:18:24.227Z,5.90
2022-11-27T03:21:04.032Z,5.50
2022-11-27T03:23:32.536Z,5.50
2022-11-27T03:26:00.873Z,5.50
2022-11-27T03:28:32.345Z,6.50
2022-11-27T03:31:02.186Z,5.47
2022-11-27T03:33:31.953Z,5.60
2022-11-27T03:36:00.027Z,5.47
2022-11-27T03:38:28.970Z,5.60
2022-11-27T03:41:06.168Z,6.40
2022-11-27T03:43:42.505Z,5.90
2022-11-27T03:46:23.141Z,6.00
2022-11-27T03:49:00.884Z,6.40
2022-11-27T03:51:40.817Z,4.87
2022-11-27T03:54:17.706Z,4.50
2022-11-27T03:56:52.431Z,5.20
2022-11-27T03:59:24.988Z,5.60
2022-11-27T04:01:54.766Z,5.07
2022-11-27T04:04:23.160Z,5.17
2022-11-27T04:06:58.138Z,4.93
2022-11-27T04:09:26.475Z,6.27
2022-11-27T04:11:54.731Z,5.50
2022-11-27T04:14:24.469Z,5.43
2022-11-27T04:16:53.971Z,6.33
2022-11-27T04:19:21.893Z,6.30
2022-11-27T04:21:51.019Z,5.07
2022-11-27T04:24:22.983Z,5.73
2022-11-27T04:26:51.412Z,6.47
2022-11-27T04:29:19.768Z,5.70
2022-11-27T04:31:47.865Z,5.90
2022-11-27T04:34:17.531Z,5.50
2022-11-27T04:36:47.781Z,5.40
2022-11-27T04:39:15.954Z,5.80
2022-11-27T04:41:45.438Z,5.07
2022-11-27T04:44:14.080Z,5.23
2022-11-27T04:46:43.435Z,5.10
2022-11-27T04:49:12.111Z,4.80
2022-11-27T04:51:44.311Z,5.57
2022-11-27T04:54:12.375Z,5.07
2022-11-27T04:56:42.277Z,5.03
2022-11-27T04:59:10.279Z,6.40
2022-11-27T05:01:38.651Z,5.27
2022-11-27T05:04:09.897Z,5.47
2022-11-27T05:06:42.591Z,4.73
2022-11-27T05:09:10.996Z,5.43
2022-11-27T05:11:42.368Z,5.10
2022-11-27T05:14:17.033Z,4.90
2022-11-27T05:16:49.057Z,5.43
2022-11-27T05:19:18.773Z,5.03
2022-11-27T05:21:49.298Z,5.40
2022-11-27T05:24:21.649Z,5.83
2022-11-27T05:26:50.231Z,5.30
2022-11-27T05:29:18.523Z,5.33
2022-11-27T05:31:47.740Z,4.47
2022-11-27T05:34:17.481Z,6.47
2022-11-27T05:36:46.517Z,6.13
2022-11-27T05:39:18.905Z,5.13
2022-11-27T05:41:50.363Z,6.30
2022-11-27T05:44:18.349Z,6.00
2022-11-27T05:46:47.594Z,5.73
2022-11-27T05:49:18.461Z,5.53
2022-11-27T05:51:52.130Z,4.77
2022-11-27T05:54:22.675Z,5.83
2022-11-27T05:56:51.072Z,5.20
2022-11-27T05:59:19.671Z,5.33
2022-11-27T06:01:49.229Z,6.20
2022-11-27T06:04:19.297Z,5.23
2022-11-27T06:06:50.534Z,5.40
2022-11-27T06:09:18.741Z,5.13
2022-11-27T06:11:50.319Z,5.23
2022-11-27T06:14:18.420Z,4.90
2022-11-27T06:16:47.178Z,5.10
2022-11-27T06:19:15.490Z,5.47
2022-11-27T06:21:43.550Z,4.90
2022-11-27T06:24:13.261Z,5.00
2022-11-27T06:26:42.134Z,5.80
2022-11-27T06:29:11.917Z,6.37
2022-11-27T06:31:41.517Z,5.43
2022-11-27T06:34:12.850Z,5.40
2022-11-27T06:36:42.796Z,6.07
2022-11-27T06:39:12.399Z,6.00
2022-11-27T06:41:41.148Z,6.20
2022-11-27T06:44:13.119Z,5.60
2022-11-27T06:46:41.283Z,5.50
2022-11-27T06:49:11.363Z,5.27
2022-11-27T06:51:39.688Z,6.00
2022-11-27T06:54:08.030Z,4.90
2022-11-27T06:56:37.082Z,6.00
2022-11-27T06:59:05.680Z,5.93
2022-11-27T07:01:36.591Z,7.80
2022-11-27T07:04:05.033Z,6.00
2022-11-27T07:06:35.188Z,6.50
2022-11-27T07:09:06.509Z,7.30
2022-11-27T07:11:35.904Z,7.20
2022-11-27T07:14:05.623Z,6.87
2022-11-27T07:16:43.148Z,8.23
2022-11-27T07:19:12.093Z,7.27
2022-11-27T07:21:40.954Z,6.67
2022-11-27T07:24:10.051Z,7.90
2022-11-27T07:26:38.858Z,6.63
2022-11-27T07:29:06.863Z,6.70
2022-11-27T07:31:35.118Z,6.30
2022-11-27T07:34:14.075Z,7.50
2022-11-27T07:36:46.744Z,6.90
2022-11-27T07:39:15.031Z,6.73
2022-11-27T07:41:43.655Z,7.27
2022-11-27T07:44:12.390Z,8.17
2022-11-27T07:46:40.762Z,6.73
2022-11-27T07:49:12.494Z,6.43
2022-11-27T07:51:43.645Z,7.33
2022-11-27T07:54:12.055Z,7.50
2022-11-27T07:56:40.515Z,7.97
2022-11-27T07:59:09.590Z,7.67
2022-11-27T08:01:40.528Z,8.10
2022-11-27T08:04:09.410Z,7.03
2022-11-27T08:06:39.119Z,7.37
2022-11-27T08:09:07.833Z,8.43
2022-11-27T08:11:38.479Z,7.80
2022-11-27T08:14:08.503Z,7.33
2022-11-27T08:16:40.211Z,6.67
2022-11-27T08:19:08.991Z,7.53
2022-11-27T08:21:41.315Z,7.30
2022-11-27T08:24:09.915Z,7.67
2022-11-27T08:26:39.446Z,6.70
2022-11-27T08:29:08.063Z,7.00
2022-11-27T08:31:36.410Z,6.87
2022-11-27T08:34:05.194Z,7.40
2022-11-27T08:36:39.570Z,7.70
2022-11-27T08:39:12.743Z,7.20
2022-11-27T08:41:40.863Z,6.90
2022-11-27T08:44:09.547Z,7.23
2022-11-27T08:46:40.831Z,7.33
2022-11-27T08:49:09.687Z,7.97
2022-11-27T08:51:38.745Z,7.10
2022-11-27T08:54:06.971Z,7.80
2022-11-27T08:56:36.838Z,7.60
2022-11-27T08:59:05.624Z,7.40
2022-11-27T09:01:36.203Z,7.90
2022-11-27T09:04:04.518Z,8.23
2022-11-27T09:06:37.475Z,8.93
2022-11-27T09:09:07.600Z,8.30
2022-11-27T09:11:38.561Z,7.87
2022-11-27T09:14:06.794Z,7.90
2022-11-27T09:16:35.055Z,8.20
2022-11-27T09:19:05.498Z,7.40
2022-11-27T09:21:35.520Z,8.23
2022-11-27T09:24:10.352Z,7.23
2022-11-27T09:26:41.837Z,8.40
2022-11-27T09:29:10.237Z,8.20
2022-11-27T09:31:38.527Z,8.03
2022-11-27T09:34:09.079Z,7.27
2022-11-27T09:36:39.052Z,7.20
2022-11-27T09:39:07.185Z,7.73
2022-11-27T09:41:47.110Z,7.13
2022-11-27T09:44:35.002Z,7.00
2022-11-27T09:47:13.421Z,5.83
2022-11-27T09:49:49.287Z,6.80
2022-11-27T09:52:25.322Z,6.10
2022-11-27T09:54:59.351Z,6.70
2022-11-27T09:57:34.568Z,6.03
2022-11-27T10:00:07.302Z,6.40
2022-11-27T10:02:39.533Z,6.23
2022-11-27T10:05:16.550Z,6.73
2022-11-27T10:08:21.638Z,7.10
2022-11-27T10:11:01.885Z,4.87
2022-11-27T10:13:42.501Z,6.33
2022-11-27T10:16:21.201Z,5.43
2022-11-27T10:18:55.515Z,5.73
2022-11-27T10:21:31.306Z,5.93
2022-11-27T10:24:08.350Z,5.90
2022-11-27T10:26:42.800Z,5.83
2022-11-27T10:29:36.155Z,4.13
2022-11-27T10:32:33.013Z,5.03
2022-11-27T10:35:05.728Z,5.10
2022-11-27T10:37:39.791Z,5.40
2022-11-27T10:40:19.827Z,5.70
2022-11-27T10:42:56.622Z,4.60
2022-11-27T10:45:33.109Z,5.83
2022-11-27T10:48:01.700Z,5.40
2022-11-27T10:50:30.859Z,5.00
2022-11-27T10:53:06.433Z,5.10
2022-11-27T10:55:59.372Z,4.83
2022-11-27T10:58:33.711Z,4.80
2022-11-27T11:01:06.869Z,4.90
2022-11-27T11:03:36.007Z,5.50
2022-11-27T11:06:21.342Z,5.07
2022-11-27T11:09:04.054Z,4.90
2022-11-27T11:11:33.329Z,6.03
2022-11-27T11:14:01.426Z,5.10
2022-11-27T11:16:35.153Z,4.97
2022-11-27T11:19:06.273Z,5.20
2022-11-27T11:21:40.395Z,5.10
2022-11-27T11:24:16.974Z,5.03
2022-11-27T11:26:48.277Z,5.00
2022-11-27T11:29:33.402Z,4.73
2022-11-27T11:32:13.019Z,4.43
2022-11-27T11:34:47.373Z,5.00
2022-11-27T11:37:27.383Z,5.13
2022-11-27T11:40:01.126Z,4.20
2022-11-27T11:42:38.198Z,5.00
2022-11-27T11:45:20.279Z,5.13
2022-11-27T11:47:52.105Z,4.27
2022-11-27T11:50:31.058Z,4.20
2022-11-27T11:53:06.035Z,5.37
2022-11-27T11:55:42.739Z,5.43
2022-11-27T11:58:30.945Z,5.30
2022-11-27T12:01:26.822Z,5.03
2022-11-27T12:04:14.565Z,5.40
2022-11-27T12:06:56.481Z,3.90
2022-11-27T12:09:46.415Z,4.33
2022-11-27T12:12:25.689Z,4.60
2022-11-27T12:15:00.359Z,4.30
2022-11-27T12:17:49.385Z,4.67
2022-11-27T12:20:24.781Z,4.10
2022-11-27T12:23:28.275Z,3.60
2022-11-27T12:26:09.704Z,4.23
2022-11-27T12:28:59.363Z,3.60
2022-11-27T12:31:44.108Z,5.50
2022-11-27T12:34:21.077Z,4.63
2022-11-27T12:37:13.614Z,3.60
2022-11-27T12:40:04.391Z,3.97
2022-11-27T12:42:44.663Z,3.27
2022-11-27T12:45:23.971Z,3.93
2022-11-27T12:47:59.928Z,3.60
2022-11-27T12:50:37.936Z,3.60
2022-11-27T12:53:23.166Z,3.20
2022-11-27T12:56:02.630Z,4.03
2022-11-27T12:58:35.147Z,4.53
2022-11-27T13:01:08.245Z,3.30
2022-11-27T13:03:45.807Z,2.70
2022-11-27T13:06:20.031Z,3.20
2022-11-27T13:09:15.894Z,3.97
2022-11-27T13:11:45.804Z,3.80
2022-11-27T13:14:22.202Z,3.83
2022-11-27T13:16:55.180Z,3.20
2022-11-27T13:19:29.195Z,3.40
2022-11-27T13:22:01.093Z,4.00
2022-11-27T13:24:30.664Z,2.70
2022-11-27T13:27:04.746Z,3.07
2022-11-27T13:29:38.749Z,2.43
2022-11-27T13:32:21.269Z,2.50
2022-11-27T13:34:52.234Z,3.17
2022-11-27T13:37:29.961Z,2.30
2022-11-27T13:40:06.601Z,2.57
2022-11-27T13:42:37.840Z,2.60
2022-11-27T13:45:11.379Z,2.70
2022-11-27T13:47:46.049Z,2.37
2022-11-27T13:50:16.897Z,2.53
2022-11-27T13:52:57.231Z,2.13
2022-11-27T13:55:32.294Z,2.33
2022-11-27T13:58:06.821Z,2.63
2022-11-27T14:00:39.805Z,2.50
2022-11-27T14:03:22.442Z,2.87
2022-11-27T14:05:52.141Z,2.03
2022-11-27T14:08:24.116Z,2.10
2022-11-27T14:11:02.560Z,2.43
2022-11-27T14:13:39.531Z,2.30
2022-11-27T14:16:25.139Z,2.27
2022-11-27T14:18:56.279Z,2.93
2022-11-27T14:21:31.815Z,2.30
2022-11-27T14:24:05.822Z,3.37
2022-11-27T14:26:36.388Z,1.80
2022-11-27T14:29:04.648Z,2.40
2022-11-27T14:31:35.537Z,2.47
2022-11-27T14:34:27.824Z,2.40
2022-11-27T14:36:57.775Z,2.43
2022-11-27T14:39:30.617Z,2.20
2022-11-27T14:42:04.190Z,3.30
2022-11-27T14:44:32.726Z,2.40
2022-11-27T14:47:04.819Z,2.60
2022-11-27T14:49:33.987Z,2.53
2022-11-27T14:52:06.993Z,2.80
2022-11-27T14:54:39.027Z,3.10
2022-11-27T14:57:16.308Z,2.53
2022-11-27T14:59:45.073Z,2.97
2022-11-27T15:02:19.177Z,3.00
2022-11-27T15:04:48.261Z,2.57
2022-11-27T15:07:19.316Z,3.33
2022-11-27T15:09:51.246Z,2.50
2022-11-27T15:12:25.331Z,3.40
2022-11-27T15:14:59.174Z,3.17
2022-11-27T15:17:31.713Z,3.23
2022-11-27T15:20:01.447Z,3.47
2022-11-27T15:22:30.201Z,3.10
2022-11-27T15:25:04.721Z,3.90
2022-11-27T15:27:46.110Z,3.90
2022-11-27T15:30:18.690Z,3.70
2022-11-27T15:32:52.279Z,3.43
2022-11-27T15:35:27.840Z,4.63
2022-11-27T15:38:04.626Z,4.17
2022-11-27T15:40:37.675Z,3.57
2022-11-27T15:43:13.969Z,3.50
2022-11-27T15:45:43.649Z,3.93
2022-11-27T15:48:16.997Z,3.70
2022-11-27T15:50:51.408Z,3.93
2022-11-27T15:53:20.290Z,3.97
2022-11-27T15:55:48.791Z,3.70
2022-11-27T15:58:18.750Z,5.00
2022-11-27T16:00:48.999Z,4.47
2022-11-27T16:03:18.864Z,3.87
2022-11-27T16:05:47.782Z,3.83
2022-11-27T16:08:16.152Z,3.87
2022-11-27T16:10:45.213Z,3.73
2022-11-27T16:13:14.714Z,4.57
2022-11-27T16:15:44.640Z,4.77
2022-11-27T16:18:14.450Z,4.00
2022-11-27T16:20:44.433Z,4.07
2022-11-27T16:23:15.051Z,4.90
2022-11-27T16:25:43.335Z,4.53
2022-11-27T16:28:11.768Z,4.97
2022-11-27T16:30:44.383Z,5.23
2022-11-27T16:33:13.896Z,4.70
2022-11-27T16:35:44.485Z,5.30
2022-11-27T16:38:13.616Z,5.87
2022-11-27T16:40:48.788Z,5.67
2022-11-27T16:43:20.745Z,4.90
2022-11-27T16:45:51.789Z,5.50
2022-11-27T16:48:21.988Z,5.00
2022-11-27T16:50:51.577Z,5.63
2022-11-27T16:53:20.378Z,4.57
2022-11-27T16:55:48.409Z,5.23
2022-11-27T16:58:16.776Z,5.20
2022-11-27T17:00:45.041Z,5.17
2022-11-27T17:03:13.426Z,4.70
2022-11-27T17:05:46.389Z,5.00
2022-11-27T17:08:20.425Z,5.23
2022-11-27T17:10:48.950Z,4.50
2022-11-27T17:13:18.055Z,5.90
2022-11-27T17:15:48.113Z,4.60
2022-11-27T17:18:19.833Z,4.67
2022-11-27T17:20:50.789Z,4.70
2022-11-27T17:23:19.466Z,3.67
2022-11-27T17:25:48.445Z,3.93
2022-11-27T17:28:17.290Z,4.27
2022-11-27T17:30:45.716Z,3.90
2022-11-27T17:33:13.950Z,4.37
2022-11-27T17:35:43.106Z,3.50
2022-11-27T17:38:13.642Z,4.30
2022-11-27T17:40:42.649Z,4.13
2022-11-27T17:43:12.244Z,4.20
2022-11-27T17:45:43.879Z,4.07
2022-11-27T17:48:12.783Z,4.30
2022-11-27T17:50:41.686Z,4.30
2022-11-27T17:53:10.483Z,4.03
2022-11-27T17:55:44.493Z,3.93
2022-11-27T17:58:12.510Z,3.80
2022-11-27T18:00:44.986Z,4.43
2022-11-27T18:03:14.016Z,3.80
2022-11-27T18:05:46.597Z,4.50
2022-11-27T18:08:17.207Z,3.90
2022-11-27T18:10:47.422Z,3.67
2022-11-27T18:13:17.818Z,3.47
2022-11-27T18:15:48.795Z,4.20
2022-11-27T18:18:17.683Z,3.90
2022-11-27T18:20:49.888Z,4.20
2022-11-27T18:23:17.902Z,5.00
2022-11-27T18:25:50.263Z,4.60
2022-11-27T18:28:19.315Z,4.20
2022-11-27T18:30:47.573Z,4.07
2022-11-27T18:33:17.219Z,3.90
2022-11-27T18:35:54.478Z,4.10
2022-11-27T18:38:24.865Z,4.13
2022-11-27T18:40:55.895Z,4.30
2022-11-27T18:43:27.122Z,4.70
2022-11-27T18:45:56.424Z,4.57
2022-11-27T18:48:25.667Z,4.63
2022-11-27T18:50:54.772Z,4.20
2022-11-27T18:53:24.045Z,4.67
2022-11-27T18:55:53.166Z,4.40
2022-11-27T18:58:25.602Z,5.30
2022-11-27T19:00:57.480Z,5.30
2022-11-27T19:03:27.338Z,4.77
2022-11-27T19:05:56.759Z,5.30
2022-11-27T19:08:28.154Z,5.53
2022-11-27T19:10:57.105Z,5.27
2022-11-27T19:13:26.546Z,5.20
2022-11-27T19:15:54.470Z,4.77
2022-11-27T19:18:25.810Z,4.93
2022-11-27T19:20:55.058Z,4.60
2022-11-27T19:23:28.244Z,4.50
2022-11-27T19:25:56.715Z,4.33
2022-11-27T19:28:26.546Z,4.57
2022-11-27T19:30:54.763Z,5.30
2022-11-27T19:33:25.700Z,4.40
2022-11-27T19:35:53.732Z,5.27
2022-11-27T19:38:22.186Z,4.93
2022-11-27T19:40:51.125Z,5.63
2022-11-27T19:43:23.320Z,4.47
2022-11-27T19:45:57.804Z,4.97
2022-11-27T19:48:28.907Z,4.93
2022-11-27T19:51:03.385Z,5.53
2022-11-27T19:53:32.442Z,5.40
2022-11-27T19:56:02.439Z,5.53
2022-11-27T19:58:51.069Z,5.57
2022-11-27T20:01:23.116Z,5.33
2022-11-27T20:03:52.452Z,5.00
2022-11-27T20:06:22.299Z,5.00
2022-11-27T20:08:52.880Z,5.37
2022-11-27T20:11:23.637Z,5.10
2022-11-27T20:13:52.109Z,5.50
2022-11-27T20:16:23.717Z,5.10
2022-11-27T20:18:54.110Z,5.70
2022-11-27T20:21:27.472Z,4.57
2022-11-27T20:23:57.219Z,5.10
2022-11-27T20:26:30.574Z,5.27
2022-11-27T20:29:00.801Z,5.27
2022-11-27T20:31:33.522Z,4.97
2022-11-27T20:34:05.298Z,5.90
2022-11-27T20:36:39.870Z,6.17
2022-11-27T20:39:15.046Z,5.63
2022-11-27T20:41:48.074Z,5.97
2022-11-27T20:44:17.680Z,5.57
2022-11-27T20:46:47.911Z,5.40
2022-11-27T20:49:18.851Z,6.43
2022-11-27T20:51:48.998Z,5.30
2022-11-27T20:54:21.027Z,5.30
2022-11-27T20:56:52.798Z,4.90
2022-11-27T20:59:22.368Z,5.30
2022-11-27T21:01:54.046Z,5.50
2022-11-27T21:04:25.442Z,5.07
2022-11-27T21:06:58.895Z,5.13
2022-11-27T21:09:27.683Z,5.60
2022-11-27T21:11:55.924Z,5.90
2022-11-27T21:14:28.160Z,5.87
2022-11-27T21:17:04.523Z,5.40
2022-11-27T21:19:34.113Z,5.70
2022-11-27T21:22:05.778Z,5.93
2022-11-27T21:24:34.450Z,6.30
2022-11-27T21:27:03.340Z,5.80
2022-11-27T21:29:31.679Z,6.43
2022-11-27T21:32:00.985Z,6.70
2022-11-27T21:34:29.035Z,5.80
2022-11-27T21:37:00.562Z,5.90
2022-11-27T21:39:29.356Z,6.03
2022-11-27T21:42:00.647Z,6.13
2022-11-27T21:44:31.210Z,5.90
2022-11-27T21:47:12.100Z,6.33
2022-11-27T21:49:41.047Z,6.27
2022-11-27T21:52:10.644Z,5.80
2022-11-27T21:54:42.431Z,5.17
2022-11-27T21:57:12.909Z,7.03
2022-11-27T21:59:41.078Z,6.60
2022-11-27T22:02:12.519Z,5.90
2022-11-27T22:04:44.740Z,6.23
2022-11-27T22:07:13.484Z,5.60
2022-11-27T22:09:41.697Z,6.30
2022-11-27T22:12:10.879Z,6.63
2022-11-27T22:14:40.402Z,5.80
2022-11-27T22:17:08.768Z,6.10
2022-11-27T22:19:42.519Z,6.37
2022-11-27T22:22:10.744Z,7.10
2022-11-27T22:24:41.468Z,6.40
2022-11-27T22:27:14.387Z,6.23
2022-11-27T22:29:45.580Z,5.30
2022-11-27T22:32:13.798Z,6.23
2022-11-27T22:34:44.802Z,7.17
2022-11-27T22:37:13.098Z,6.73
2022-11-27T22:39:44.080Z,6.17
2022-11-27T22:42:13.379Z,6.90
2022-11-27T22:44:41.597Z,7.13
2022-11-27T22:47:10.362Z,6.63
2022-11-27T22:49:38.841Z,6.20
2022-11-27T22:52:08.460Z,7.37
2022-11-27T22:54:36.566Z,6.20
2022-11-27T22:57:07.305Z,5.83
2022-11-27T22:59:40.266Z,5.90
2022-11-27T23:02:09.104Z,7.00
2022-11-27T23:04:38.785Z,6.53
2022-11-27T23:07:09.034Z,5.83
2022-11-27T23:09:39.300Z,6.30
2022-11-27T23:12:08.043Z,5.73
2022-11-27T23:14:38.419Z,6.33
2022-11-27T23:17:08.510Z,5.50
2022-11-27T23:19:40.009Z,6.27
2022-11-27T23:22:09.799Z,5.63
2022-11-27T23:24:39.945Z,5.83
2022-11-27T23:27:10.508Z,6.30
2022-11-27T23:29:38.950Z,5.43
2022-11-27T23:32:09.343Z,5.90
2022-11-27T23:34:42.817Z,6.23
2022-11-27T23:37:15.967Z,5.93
2022-11-27T23:39:46.171Z,5.43
2022-11-27T23:42:15.718Z,6.30
2022-11-27T23:44:44.654Z,6.60
2022-11-27T23:47:12.829Z,5.93
2022-11-27T23:49:41.237Z,5.73
2022-11-27T23:52:14.279Z,6.30
2022-11-27T23:54:46.950Z,6.30
2022-11-27T23:57:18.358Z,5.37
2022-11-27T23:59:47.657Z,7.53
